Mosherville, Pennsylvania
Current Conditions -  °F | °C
As of 7:53 PM on Saturday 25 Oct 2014 (Local Time) from KELM Reporting Station
Clear Clear  
Wind Chill: 61°   Ceiling: Unl
Heat Index: 61°   Visibility: 10mi
Dew Point: 46°   Wind: 10mph
Humidity: 58%   Direction: 320°NW
Pressure: 29.62"   Gusts: NA
Location:  41.9519°N, 76.7808°W
Report Text: KELM 252353Z AUTO 32009KT 10SM CLR 16/08 A2962 RMK AO2 PK WND 27027/2320 SLP032 T01610078 10206 20161 53007
Loading
Personal Weather Stations






























Interactive Weather Map
Tropical Storm Tracking
New forecast layout! Learn more

10-Day Weather Forecast

Advertisements
Track Severe Weather on mobile